createdAt,value
2019-05-10T00:01:04.067Z,66.60
2019-05-10T00:03:52.374Z,66.70
2019-05-10T00:06:40.706Z,66.90
2019-05-10T00:09:10.859Z,67.00
2019-05-10T00:12:19.086Z,66.90
2019-05-10T00:14:52.211Z,67.00
2019-05-10T00:17:23.828Z,67.00
2019-05-10T00:19:55.312Z,67.00
2019-05-10T00:22:26.464Z,66.80
2019-05-10T00:25:03.814Z,66.50
2019-05-10T00:27:30.221Z,66.40
2019-05-10T00:30:01.360Z,65.90
2019-05-10T00:32:32.569Z,65.90
2019-05-10T00:35:03.752Z,65.80
2019-05-10T00:37:35.435Z,66.00
2019-05-10T00:40:08.165Z,66.10
2019-05-10T00:42:39.404Z,66.00
2019-05-10T00:45:10.621Z,65.80
2019-05-10T00:47:42.062Z,65.70
2019-05-10T00:50:13.771Z,65.50
2019-05-10T00:52:44.954Z,65.40
2019-05-10T00:55:18.835Z,65.50
2019-05-10T00:57:49.674Z,65.60
2019-05-10T01:00:20.997Z,65.80
2019-05-10T01:02:52.069Z,65.80
2019-05-10T01:05:22.971Z,66.10
2019-05-10T01:07:54.020Z,66.00
2019-05-10T01:10:25.669Z,65.80
2019-05-10T01:12:56.773Z,65.70
2019-05-10T01:15:27.788Z,65.40
2019-05-10T01:17:58.873Z,65.40
2019-05-10T01:20:29.968Z,65.60
2019-05-10T01:23:01.163Z,65.70
2019-05-10T01:25:35.634Z,65.70
2019-05-10T01:28:06.360Z,66.00
2019-05-10T01:30:37.387Z,65.90
2019-05-10T01:33:08.382Z,65.80
2019-05-10T01:35:39.455Z,66.00
2019-05-10T01:38:10.483Z,66.00
2019-05-10T01:40:41.593Z,66.10
2019-05-10T01:43:13.265Z,66.10
2019-05-10T01:45:44.371Z,66.00
2019-05-10T01:48:16.095Z,66.10
2019-05-10T01:50:47.005Z,66.40
2019-05-10T01:53:18.734Z,66.50
2019-05-10T01:55:52.606Z,66.50
2019-05-10T01:58:23.195Z,66.80
2019-05-10T02:00:54.753Z,67.70
2019-05-10T02:03:26.339Z,67.30
2019-05-10T02:05:57.411Z,67.80
2019-05-10T02:08:28.620Z,68.30
2019-05-10T02:11:01.227Z,68.70
2019-05-10T02:13:32.279Z,68.70
2019-05-10T02:16:03.282Z,68.70
2019-05-10T02:18:34.392Z,68.50
2019-05-10T02:21:05.375Z,68.50
2019-05-10T02:23:36.416Z,68.30
2019-05-10T02:26:09.791Z,68.20
2019-05-10T02:28:40.161Z,68.10
2019-05-10T02:31:11.334Z,68.00
2019-05-10T02:33:42.322Z,67.90
2019-05-10T02:36:13.347Z,67.90
2019-05-10T02:38:44.347Z,67.80
2019-05-10T02:41:15.369Z,67.70
2019-05-10T02:43:46.582Z,67.50
2019-05-10T02:46:17.753Z,67.50
2019-05-10T02:48:48.774Z,67.40
2019-05-10T02:51:19.722Z,67.30
2019-05-10T02:53:51.000Z,67.70
2019-05-10T02:56:30.245Z,68.00
2019-05-10T02:58:57.715Z,68.10
2019-05-10T03:01:31.611Z,68.10
2019-05-10T03:04:04.399Z,68.40
2019-05-10T03:06:36.578Z,68.60
2019-05-10T03:09:09.538Z,68.80
2019-05-10T03:11:48.415Z,68.90
2019-05-10T03:14:20.864Z,69.20
2019-05-10T03:16:53.077Z,69.40
2019-05-10T03:19:25.022Z,69.50
2019-05-10T03:22:07.486Z,69.60
2019-05-10T03:24:39.282Z,69.90
2019-05-10T03:27:10.976Z,70.10
2019-05-10T03:29:42.653Z,70.00
2019-05-10T03:32:14.322Z,70.00
2019-05-10T03:34:45.446Z,69.80
2019-05-10T03:37:16.682Z,69.70
2019-05-10T03:39:48.337Z,69.60
2019-05-10T03:42:19.896Z,69.80
2019-05-10T03:44:51.613Z,69.90
2019-05-10T03:47:23.257Z,70.00
2019-05-10T03:49:54.935Z,69.70
2019-05-10T03:52:27.621Z,69.40
2019-05-10T03:54:59.235Z,69.20
2019-05-10T03:57:31.071Z,68.90
2019-05-10T04:00:03.192Z,68.70
2019-05-10T04:02:35.752Z,68.40
2019-05-10T04:05:09.868Z,68.40
2019-05-10T04:07:41.483Z,68.60
2019-05-10T04:10:13.845Z,68.90
2019-05-10T04:12:46.671Z,69.30
2019-05-10T04:15:18.778Z,69.00
2019-05-10T04:17:50.743Z,69.00
2019-05-10T04:20:22.622Z,69.10
2019-05-10T04:22:54.582Z,69.30
2019-05-10T04:25:26.339Z,69.60
2019-05-10T04:27:57.981Z,69.80
2019-05-10T04:30:31.904Z,69.90
2019-05-10T04:33:02.937Z,69.70
2019-05-10T04:35:34.864Z,69.30
2019-05-10T04:38:11.206Z,68.90
2019-05-10T04:40:55.939Z,69.10
2019-05-10T04:43:27.417Z,68.70
2019-05-10T04:45:59.874Z,68.60
2019-05-10T04:48:32.501Z,68.60
2019-05-10T04:51:04.594Z,68.60
2019-05-10T04:53:36.376Z,68.80
2019-05-10T04:56:08.257Z,68.80
2019-05-10T04:58:40.276Z,69.00
2019-05-10T05:01:12.384Z,69.20
2019-05-10T05:03:44.663Z,69.30
2019-05-10T05:06:16.258Z,69.30
2019-05-10T05:08:47.335Z,69.10
2019-05-10T05:11:22.314Z,69.00
2019-05-10T05:13:54.193Z,68.90
2019-05-10T05:16:25.195Z,68.90
2019-05-10T05:18:57.184Z,69.00
2019-05-10T05:21:28.970Z,69.00
2019-05-10T05:24:00.083Z,69.00
2019-05-10T05:26:31.183Z,69.30
2019-05-10T05:29:02.747Z,69.40
2019-05-10T05:31:33.978Z,69.70
2019-05-10T05:34:06.410Z,69.90
2019-05-10T05:36:38.168Z,69.60
2019-05-10T05:39:09.818Z,69.50
2019-05-10T05:41:49.100Z,69.10
2019-05-10T05:44:15.114Z,69.20
2019-05-10T05:46:46.944Z,69.30
2019-05-10T05:49:18.773Z,68.90
2019-05-10T05:51:50.518Z,69.00
2019-05-10T05:54:22.687Z,69.20
2019-05-10T05:56:55.639Z,69.00
2019-05-10T05:59:27.302Z,68.90
2019-05-10T06:02:00.470Z,68.70
2019-05-10T06:04:33.104Z,68.40
2019-05-10T06:07:04.740Z,68.60
2019-05-10T06:09:37.869Z,68.90
2019-05-10T06:12:12.555Z,68.80
2019-05-10T06:14:49.636Z,68.70
2019-05-10T06:17:18.266Z,69.30
2019-05-10T06:19:49.791Z,69.10
2019-05-10T06:22:21.915Z,68.90
2019-05-10T06:24:53.988Z,69.00
2019-05-10T06:27:26.162Z,68.90
2019-05-10T06:29:58.413Z,68.30
2019-05-10T06:32:30.581Z,68.90
2019-05-10T06:35:03.607Z,68.00
2019-05-10T06:37:36.718Z,67.60
2019-05-10T06:40:08.916Z,67.70
2019-05-10T06:42:41.060Z,67.90
2019-05-10T06:45:16.039Z,67.40
2019-05-10T06:47:49.122Z,67.20
2019-05-10T06:50:29.125Z,67.30
2019-05-10T06:52:54.105Z,67.20
2019-05-10T06:55:26.388Z,67.30
2019-05-10T06:58:00.681Z,67.50
2019-05-10T07:00:32.300Z,67.20
2019-05-10T07:03:04.621Z,67.20
2019-05-10T07:05:36.801Z,67.20
2019-05-10T07:08:16.419Z,67.30
2019-05-10T07:10:42.444Z,67.50
2019-05-10T07:13:14.562Z,67.20
2019-05-10T07:15:46.605Z,67.30
2019-05-10T07:18:22.500Z,67.20
2019-05-10T07:20:52.443Z,67.20
2019-05-10T07:23:24.620Z,66.90
2019-05-10T07:25:57.042Z,66.80
2019-05-10T07:28:29.305Z,66.10
2019-05-10T07:31:00.960Z,65.70
2019-05-10T07:33:37.228Z,65.80
2019-05-10T07:36:14.468Z,64.90
2019-05-10T07:38:38.813Z,64.40
2019-05-10T07:41:11.603Z,64.30
2019-05-10T07:43:47.440Z,63.70
2019-05-10T07:46:17.350Z,63.50
2019-05-10T07:48:53.381Z,63.80
2019-05-10T07:51:28.326Z,63.60
2019-05-10T07:53:56.944Z,63.60
2019-05-10T07:56:30.113Z,63.30
2019-05-10T07:59:01.793Z,63.20
2019-05-10T08:01:34.919Z,62.60
2019-05-10T08:04:08.989Z,62.00
2019-05-10T08:06:47.636Z,61.80
2019-05-10T08:09:15.149Z,61.60
2019-05-10T08:11:48.489Z,60.60
2019-05-10T08:14:20.779Z,59.40
2019-05-10T08:16:58.310Z,59.50
2019-05-10T08:19:26.245Z,59.30
2019-05-10T08:22:01.868Z,58.90
2019-05-10T08:24:32.760Z,58.30
2019-05-10T08:27:11.506Z,58.30
2019-05-10T08:29:39.525Z,58.70
2019-05-10T08:32:12.821Z,58.60
2019-05-10T08:34:52.064Z,58.00
2019-05-10T08:37:30.375Z,57.80
2019-05-10T08:39:56.010Z,57.90
2019-05-10T08:42:40.884Z,57.80
2019-05-10T08:45:05.454Z,57.40
2019-05-10T08:47:33.842Z,57.60
2019-05-10T08:50:22.448Z,57.10
2019-05-10T08:52:42.107Z,55.70
2019-05-10T08:55:13.411Z,54.50
2019-05-10T08:57:49.084Z,53.60
2019-05-10T09:00:38.370Z,53.30
2019-05-10T09:02:53.309Z,52.10
2019-05-10T09:05:28.813Z,50.90
2019-05-10T09:08:04.872Z,48.60
2019-05-10T09:10:33.576Z,47.80
2019-05-10T09:13:05.486Z,47.90
2019-05-10T09:15:43.152Z,47.50
2019-05-10T09:18:12.847Z,47.80
2019-05-10T09:20:45.139Z,46.60
2019-05-10T09:23:20.064Z,47.80
2019-05-10T09:25:51.981Z,47.90
2019-05-10T09:28:24.085Z,47.10
2019-05-10T09:31:01.213Z,47.60
2019-05-10T09:33:31.893Z,47.90
2019-05-10T09:36:04.049Z,47.10
2019-05-10T09:38:39.246Z,48.10
2019-05-10T09:41:11.777Z,48.50
2019-05-10T09:43:48.804Z,48.70
2019-05-10T09:46:22.760Z,47.90
2019-05-10T09:49:03.978Z,48.20
2019-05-10T09:51:30.153Z,48.40
2019-05-10T09:54:01.242Z,48.50
2019-05-10T09:56:39.517Z,48.50
2019-05-10T09:59:08.243Z,48.50
2019-05-10T10:01:41.029Z,48.50
2019-05-10T10:04:14.457Z,48.70
2019-05-10T10:06:48.213Z,48.10
2019-05-10T10:09:24.460Z,45.70
2019-05-10T10:11:58.127Z,45.20
2019-05-10T10:14:28.358Z,43.40
2019-05-10T10:17:03.141Z,43.20
2019-05-10T10:19:34.091Z,43.20
2019-05-10T10:22:11.198Z,41.00
2019-05-10T10:24:41.233Z,40.50
2019-05-10T10:27:13.421Z,41.10
2019-05-10T10:29:47.483Z,41.60
2019-05-10T10:32:19.170Z,41.50
2019-05-10T10:34:54.551Z,39.80
2019-05-10T10:37:29.040Z,40.60
2019-05-10T10:40:00.603Z,39.90
2019-05-10T10:42:38.144Z,39.10
2019-05-10T10:45:09.938Z,39.00
2019-05-10T10:47:42.037Z,37.90
2019-05-10T10:50:14.330Z,38.40
2019-05-10T10:52:46.403Z,40.60
2019-05-10T10:55:18.787Z,41.50
2019-05-10T10:57:50.955Z,40.40
2019-05-10T11:00:33.435Z,36.90
2019-05-10T11:03:06.738Z,36.40
2019-05-10T11:05:38.697Z,36.90
2019-05-10T11:08:11.249Z,38.40
2019-05-10T11:10:43.595Z,38.90
2019-05-10T11:13:23.773Z,40.10
2019-05-10T11:15:51.539Z,39.70
2019-05-10T11:18:23.544Z,40.70
2019-05-10T11:20:55.434Z,39.20
2019-05-10T11:23:36.681Z,37.50
2019-05-10T11:26:01.563Z,37.70
2019-05-10T11:28:38.827Z,36.10
2019-05-10T11:31:07.653Z,35.10
2019-05-10T11:33:41.574Z,34.40
2019-05-10T11:36:13.517Z,33.80
2019-05-10T11:38:47.128Z,32.80
2019-05-10T11:41:23.763Z,31.90
2019-05-10T11:43:57.946Z,33.00
2019-05-10T11:46:28.135Z,32.90
2019-05-10T11:49:01.760Z,32.20
2019-05-10T11:51:34.394Z,32.30
2019-05-10T11:54:06.970Z,31.80
2019-05-10T11:56:41.068Z,30.40
2019-05-10T11:59:16.486Z,30.00
2019-05-10T12:06:56.731Z,29.50
2019-05-10T12:09:31.516Z,29.10
2019-05-10T12:12:03.448Z,29.20
2019-05-10T12:14:36.736Z,29.50
2019-05-10T12:17:13.817Z,28.30
2019-05-10T12:19:47.742Z,27.80
2019-05-10T12:22:16.218Z,27.10
2019-05-10T12:25:13.054Z,27.00
2019-05-10T12:26:17.832Z,29.00
2019-05-10T12:26:19.634Z,29.00
2019-05-10T12:27:28.809Z,28.40
2019-05-10T12:30:00.703Z,30.10
2019-05-10T12:32:33.495Z,30.40
2019-05-10T12:35:05.462Z,31.40
2019-05-10T12:37:39.677Z,32.20
2019-05-10T12:40:14.848Z,32.60
2019-05-10T12:42:47.191Z,33.00
2019-05-10T12:45:22.907Z,32.90
2019-05-10T12:47:52.135Z,33.60
2019-05-10T12:50:24.678Z,33.40
2019-05-10T12:53:03.852Z,34.20
2019-05-10T12:55:30.072Z,34.50
2019-05-10T12:58:02.289Z,34.90
2019-05-10T13:00:34.475Z,35.40
2019-05-10T13:03:12.569Z,36.00
2019-05-10T13:05:52.199Z,36.40
2019-05-10T13:08:13.403Z,36.70
2019-05-10T13:10:49.377Z,36.70
2019-05-10T13:13:23.690Z,36.70
2019-05-10T13:15:53.084Z,36.80
2019-05-10T13:18:48.207Z,36.10
2019-05-10T13:20:58.363Z,34.40
2019-05-10T13:23:30.387Z,33.60
2019-05-10T13:26:02.685Z,33.10
2019-05-10T13:28:34.954Z,32.00
2019-05-10T13:31:07.197Z,33.90
2019-05-10T13:33:42.068Z,34.70
2019-05-10T13:36:12.370Z,35.30
2019-05-10T13:38:49.051Z,36.70
2019-05-10T13:41:17.780Z,36.50
2019-05-10T13:43:53.589Z,38.00
2019-05-10T13:46:25.818Z,38.70
2019-05-10T13:48:57.769Z,39.10
2019-05-10T13:51:29.486Z,40.10
2019-05-10T13:54:04.555Z,39.90
2019-05-10T13:56:35.073Z,39.70
2019-05-10T13:59:15.613Z,39.00
2019-05-10T14:01:44.195Z,38.70
2019-05-10T14:04:13.417Z,38.90
2019-05-10T14:06:44.734Z,37.40
2019-05-10T14:09:16.195Z,36.60
2019-05-10T14:11:48.255Z,36.30
2019-05-10T14:14:20.374Z,37.60
2019-05-10T14:16:53.399Z,37.50
2019-05-10T14:19:25.536Z,37.50
2019-05-10T14:21:57.617Z,38.30
2019-05-10T14:24:29.259Z,38.00
2019-05-10T14:27:01.091Z,37.60
2019-05-10T14:29:36.549Z,38.20
2019-05-10T14:32:06.140Z,39.10
2019-05-10T14:34:43.341Z,40.00
2019-05-10T14:37:14.213Z,41.50
2019-05-10T14:39:44.058Z,42.40
2019-05-10T14:42:15.207Z,41.70
2019-05-10T14:44:46.258Z,42.00
2019-05-10T14:47:22.422Z,43.20
2019-05-10T14:49:54.732Z,43.60
2019-05-10T14:52:26.321Z,43.40
2019-05-10T14:54:58.792Z,42.50
2019-05-10T14:57:30.333Z,40.90
2019-05-10T15:00:03.791Z,39.90
2019-05-10T15:02:37.250Z,40.20
2019-05-10T15:05:15.976Z,39.10
2019-05-10T15:07:45.752Z,38.30
2019-05-10T15:10:17.704Z,38.20
2019-05-10T15:12:50.398Z,38.10
2019-05-10T15:15:21.711Z,38.20
2019-05-10T15:18:02.004Z,39.30
2019-05-10T15:20:27.277Z,39.00
2019-05-10T15:23:01.853Z,40.10
2019-05-10T15:25:33.975Z,40.00
2019-05-10T15:28:06.139Z,40.40
2019-05-10T15:30:39.122Z,40.00
2019-05-10T15:33:11.284Z,40.30
2019-05-10T15:35:45.653Z,40.30
2019-05-10T15:38:17.475Z,40.40
2019-05-10T15:40:50.878Z,40.70
2019-05-10T15:43:22.670Z,40.70
2019-05-10T15:45:55.059Z,40.60
2019-05-10T15:48:26.923Z,41.50
2019-05-10T15:50:58.596Z,41.90
2019-05-10T15:53:30.327Z,41.40
2019-05-10T15:56:03.920Z,40.00
2019-05-10T15:58:36.681Z,38.60
2019-05-10T16:01:08.645Z,39.00
2019-05-10T16:03:40.677Z,39.80
2019-05-10T16:06:12.490Z,41.80
2019-05-10T16:08:44.274Z,42.00
2019-05-10T16:11:18.884Z,41.00
2019-05-10T16:13:49.345Z,41.20
2019-05-10T16:16:20.525Z,42.90
2019-05-10T16:18:52.351Z,43.50
2019-05-10T16:21:24.037Z,44.20
2019-05-10T16:23:55.600Z,44.60
2019-05-10T16:26:27.298Z,44.30
2019-05-10T16:29:02.146Z,43.90
2019-05-10T16:31:32.457Z,44.40
2019-05-10T16:34:04.778Z,45.10
2019-05-10T16:36:36.703Z,44.40
2019-05-10T16:39:08.952Z,44.80
2019-05-10T16:41:40.677Z,45.00
2019-05-10T16:44:12.594Z,45.40
2019-05-10T16:46:44.255Z,46.10
2019-05-10T16:49:17.349Z,46.40
2019-05-10T16:51:49.973Z,46.90
2019-05-10T16:54:25.218Z,46.90
2019-05-10T16:56:59.594Z,47.20
2019-05-10T16:59:29.842Z,47.50
2019-05-10T17:02:04.153Z,47.50
2019-05-10T17:04:37.858Z,47.60
2019-05-10T17:07:12.903Z,47.50
2019-05-10T17:09:40.860Z,47.90
2019-05-10T17:12:12.211Z,48.40
2019-05-10T17:14:44.588Z,48.90
2019-05-10T17:17:16.182Z,49.00
2019-05-10T17:20:14.275Z,49.40
2019-05-10T17:23:07.628Z,49.60
2019-05-10T17:25:25.890Z,49.90
2019-05-10T17:27:58.012Z,50.60
2019-05-10T17:30:30.656Z,51.30
2019-05-10T17:33:03.892Z,52.10
2019-05-10T17:35:36.652Z,52.70
2019-05-10T17:38:14.081Z,53.10
2019-05-10T17:40:42.340Z,53.70
2019-05-10T17:43:20.939Z,54.10
2019-05-10T17:45:47.973Z,54.60
2019-05-10T17:48:19.818Z,55.20
2019-05-10T17:50:51.698Z,55.50
2019-05-10T17:53:23.209Z,55.80
2019-05-10T17:55:56.062Z,56.00
2019-05-10T17:58:33.212Z,56.20
2019-05-10T18:01:00.377Z,56.60
2019-05-10T18:03:31.525Z,56.70
2019-05-10T18:06:02.688Z,56.90
2019-05-10T18:08:33.891Z,57.10
2019-05-10T18:11:06.247Z,57.10
2019-05-10T18:13:40.930Z,57.10
2019-05-10T18:16:10.983Z,56.80
2019-05-10T18:18:46.641Z,57.30
2019-05-10T18:21:21.575Z,58.40
2019-05-10T18:23:52.470Z,58.90
2019-05-10T18:26:20.680Z,58.90
2019-05-10T18:28:51.794Z,58.60
2019-05-10T18:31:22.830Z,58.40
2019-05-10T18:33:55.793Z,58.10
2019-05-10T18:36:50.020Z,57.80
2019-05-10T18:38:59.558Z,57.40
2019-05-10T18:41:30.662Z,57.50
2019-05-10T18:44:01.596Z,57.90
2019-05-10T18:46:32.863Z,58.10
2019-05-10T18:49:03.872Z,59.10
2019-05-10T18:51:35.185Z,61.00
2019-05-10T18:54:06.512Z,62.20
2019-05-10T18:56:38.173Z,62.50
2019-05-10T18:59:10.222Z,63.20
2019-05-10T19:01:41.552Z,62.70
2019-05-10T19:04:14.422Z,62.40
2019-05-10T19:06:50.198Z,62.60
2019-05-10T19:09:19.742Z,63.40
2019-05-10T19:11:51.043Z,63.70
2019-05-10T19:14:23.988Z,63.20
2019-05-10T19:16:56.769Z,63.30
2019-05-10T19:19:28.410Z,63.30
2019-05-10T19:22:03.089Z,63.70
2019-05-10T19:24:33.238Z,63.80
2019-05-10T19:27:07.326Z,63.50
2019-05-10T19:29:38.849Z,63.20
2019-05-10T19:32:17.814Z,63.10
2019-05-10T19:34:48.385Z,63.50
2019-05-10T19:37:29.727Z,63.90
2019-05-10T19:39:49.989Z,64.30
2019-05-10T19:42:21.668Z,64.80
2019-05-10T19:44:53.219Z,65.00
2019-05-10T19:47:24.851Z,64.80
2019-05-10T19:49:56.401Z,64.70
2019-05-10T19:52:28.040Z,64.80
2019-05-10T19:54:59.626Z,65.00
2019-05-10T19:57:31.779Z,65.10
2019-05-10T20:00:03.612Z,65.60
2019-05-10T20:02:36.692Z,66.50
2019-05-10T20:05:08.053Z,66.60
2019-05-10T20:07:45.933Z,66.60
2019-05-10T20:10:12.045Z,67.00
2019-05-10T20:12:43.681Z,67.20
2019-05-10T20:15:14.913Z,67.00
2019-05-10T20:17:49.876Z,66.70
2019-05-10T20:20:20.944Z,67.20
2019-05-10T20:22:53.020Z,67.50
2019-05-10T20:25:24.580Z,67.90
2019-05-10T20:27:56.536Z,67.50
2019-05-10T20:30:28.324Z,67.10
2019-05-10T20:33:01.192Z,66.80
2019-05-10T20:35:32.268Z,66.80
2019-05-10T20:38:03.936Z,66.80
2019-05-10T20:40:37.230Z,66.60
2019-05-10T20:43:09.023Z,66.80
2019-05-10T20:45:40.399Z,67.00
2019-05-10T20:48:11.572Z,67.00
2019-05-10T20:50:43.166Z,67.10
2019-05-10T20:53:14.988Z,67.00
2019-05-10T20:55:46.726Z,67.40
2019-05-10T20:58:17.931Z,67.50
2019-05-10T21:00:49.089Z,67.50
2019-05-10T21:03:21.174Z,67.50
2019-05-10T21:05:52.142Z,67.70
2019-05-10T21:08:23.831Z,68.30
2019-05-10T21:10:54.812Z,68.60
2019-05-10T21:13:25.930Z,68.60
2019-05-10T21:15:57.111Z,68.20
2019-05-10T21:18:28.984Z,68.20
2019-05-10T21:21:00.715Z,68.00
2019-05-10T21:23:31.751Z,68.10
2019-05-10T21:26:02.738Z,68.30
2019-05-10T21:28:33.695Z,68.20
2019-05-10T21:31:04.628Z,67.90
2019-05-10T21:33:36.360Z,67.70
2019-05-10T21:36:07.376Z,67.50
2019-05-10T21:38:41.652Z,67.50
2019-05-10T21:41:11.584Z,67.40
2019-05-10T21:43:43.264Z,67.10
2019-05-10T21:46:14.435Z,67.10
2019-05-10T21:48:45.423Z,67.70
2019-05-10T21:51:16.566Z,68.00
2019-05-10T21:53:48.201Z,68.10
2019-05-10T21:56:19.275Z,67.90
2019-05-10T21:58:50.297Z,68.00
2019-05-10T22:01:21.515Z,68.20
2019-05-10T22:03:53.210Z,68.00
2019-05-10T22:06:24.298Z,67.80
2019-05-10T22:08:55.237Z,68.00
2019-05-10T22:11:26.256Z,67.80
2019-05-10T22:13:57.909Z,67.80
2019-05-10T22:16:29.962Z,67.70
2019-05-10T22:19:02.559Z,67.50
2019-05-10T22:21:33.755Z,67.30
2019-05-10T22:24:06.244Z,67.00
2019-05-10T22:26:37.339Z,66.50
2019-05-10T22:29:08.518Z,66.40
2019-05-10T22:31:39.601Z,66.30
2019-05-10T22:34:10.798Z,66.80
2019-05-10T22:36:41.759Z,67.50
2019-05-10T22:39:12.760Z,67.90
2019-05-10T22:41:44.497Z,67.70
2019-05-10T22:44:15.665Z,67.70
2019-05-10T22:46:47.385Z,67.70
2019-05-10T22:49:18.570Z,67.60
2019-05-10T22:51:49.601Z,68.40
2019-05-10T22:54:21.587Z,68.80
2019-05-10T22:56:52.539Z,69.00
2019-05-10T22:59:23.594Z,69.40
2019-05-10T23:01:55.497Z,69.50
2019-05-10T23:04:27.058Z,69.60
2019-05-10T23:07:01.265Z,70.00
2019-05-10T23:09:32.820Z,70.10
2019-05-10T23:12:03.768Z,69.80
2019-05-10T23:14:35.544Z,69.80
2019-05-10T23:17:06.723Z,70.00
2019-05-10T23:19:38.674Z,69.80
2019-05-10T23:22:09.752Z,69.70
2019-05-10T23:24:40.729Z,70.10
2019-05-10T23:27:12.195Z,70.20
2019-05-10T23:29:43.844Z,70.20
2019-05-10T23:32:15.412Z,70.00
2019-05-10T23:34:46.560Z,70.20
2019-05-10T23:37:18.185Z,70.20
2019-05-10T23:39:49.243Z,70.40
2019-05-10T23:42:20.356Z,70.50
2019-05-10T23:44:51.573Z,70.70
2019-05-10T23:47:22.492Z,70.70
2019-05-10T23:49:54.220Z,70.70
2019-05-10T23:52:26.002Z,70.70
2019-05-10T23:54:59.396Z,70.70
2019-05-10T23:57:30.412Z,71.00
